Teseo — 3FMP3 — position and weather

sailwx.info

Track history (hours):
 
Tides and Currents Weather Stations Pressure Air Temp Water Temp Dewpoint Dewpoint Depression Visibility Wind Speed Wind Dir Waves Ship Positions

Teseo

Last reported at 2018-May-25 13:08 UTC. Time now 2018-Jun-22 16:58 UTC.
Position N 18°12' W 063°45'.
Warning: this ship's position is 28 days out of date.

Length 251 m; draft 8.2 m.

Type: Tanker. MMSI: 352332000.

Date/timePositionNaut miles runAvg speedWind from/ knotsBaromVisibWave heightAir tempDewpointWater temp
2018-May-25 13:08N 18°12' W 063°45'312.3
2018-May-25 12:51N 18°13' W 063°42'613.1
2018-May-25 12:22N 18°15' W 063°35'  
2018-May-18 06:01N 35°28' W 025°46'213.3
2018-May-18 05:50N 35°28' W 025°43'813.1
2018-May-18 05:12N 35°31' W 025°33'1413.1
2018-May-18 04:05N 35°36' W 025°16'213.5
2018-May-18 03:58N 35°36' W 025°14'813.2
2018-May-18 03:22N 35°38' W 025°05'613.6
2018-May-18 02:54N 35°40' W 024°58'613.5
2018-May-18 02:27N 35°42' W 024°50'713.4
2018-May-18 01:57N 35°44' W 024°42'1613.2
2018-May-18 00:44N 35°48' W 024°23'713.5
2018-May-18 00:11N 35°50' W 024°14'1013.7
2018-May-17 23:28N 35°53' W 024°03'914.0
2018-May-17 22:48N 35°55' W 023°52'513.7
2018-May-17 22:28N 35°56' W 023°46'6413.8
2018-May-17 17:50N 36°13' W 022°30'56312.6
2018-May-15 21:11N 38°08' W 010°59'211.8
2018-May-15 21:00N 38°08' W 010°56'711.5
2018-May-15 20:23N 38°09' W 010°47'411.5
2018-May-15 20:00N 38°10' W 010°41'611.5
2018-May-15 19:29N 38°11' W 010°34'611.6
2018-May-15 19:00N 38°12' W 010°27'611.8
2018-May-15 18:30N 38°12' W 010°20'611.5
2018-May-15 18:00N 38°13' W 010°12'611.6
2018-May-15 17:30N 38°13' W 010°05'611.9
2018-May-15 17:01N 38°13' W 009°57'611.9
2018-May-15 16:30N 38°13' W 009°50'611.8
2018-May-15 16:00N 38°14' W 009°42'5 9.6
2018-May-15 15:31N 38°16' W 009°37'4 8.4
2018-May-15 15:00N 38°16' W 009°31'4 8.2
2018-May-15 14:30N 38°16' W 009°26'4 8.3
2018-May-15 14:00N 38°16' W 009°21'4 8.5
2018-May-15 13:30N 38°16' W 009°15'  
Track history (hours):
 
Tides and Currents Weather Stations Pressure Air Temp Water Temp Dewpoint Dewpoint Depression Visibility Wind Speed Wind Dir Waves Ship Positions

Teseo

Last reported at 2018-May-25 13:08 UTC. Time now 2018-Jun-22 16:58 UTC.
Position N 18°12' W 063°45'.
Warning: this ship's position is 28 days out of date.

Length 251 m; draft 8.2 m.

Type: Tanker. MMSI: 352332000.

Date/timePositionNaut miles runAvg speedWind from/ knotsBaromVisibWave heightAir tempDewpointWater temp
2018-May-25 13:08N 18°12' W 063°45'312.3
2018-May-25 12:51N 18°13' W 063°42'613.1
2018-May-25 12:22N 18°15' W 063°35'  
2018-May-18 06:01N 35°28' W 025°46'213.3
2018-May-18 05:50N 35°28' W 025°43'813.1
2018-May-18 05:12N 35°31' W 025°33'1413.1
2018-May-18 04:05N 35°36' W 025°16'213.5
2018-May-18 03:58N 35°36' W 025°14'813.2
2018-May-18 03:22N 35°38' W 025°05'613.6
2018-May-18 02:54N 35°40' W 024°58'613.5
2018-May-18 02:27N 35°42' W 024°50'713.4
2018-May-18 01:57N 35°44' W 024°42'1613.2
2018-May-18 00:44N 35°48' W 024°23'713.5
2018-May-18 00:11N 35°50' W 024°14'1013.7
2018-May-17 23:28N 35°53' W 024°03'914.0
2018-May-17 22:48N 35°55' W 023°52'513.7
2018-May-17 22:28N 35°56' W 023°46'6413.8
2018-May-17 17:50N 36°13' W 022°30'56312.6
2018-May-15 21:11N 38°08' W 010°59'211.8
2018-May-15 21:00N 38°08' W 010°56'711.5
2018-May-15 20:23N 38°09' W 010°47'411.5
2018-May-15 20:00N 38°10' W 010°41'611.5
2018-May-15 19:29N 38°11' W 010°34'611.6
2018-May-15 19:00N 38°12' W 010°27'611.8
2018-May-15 18:30N 38°12' W 010°20'611.5
2018-May-15 18:00N 38°13' W 010°12'611.6
2018-May-15 17:30N 38°13' W 010°05'611.9
2018-May-15 17:01N 38°13' W 009°57'611.9
2018-May-15 16:30N 38°13' W 009°50'611.8
2018-May-15 16:00N 38°14' W 009°42'5 9.6
2018-May-15 15:31N 38°16' W 009°37'4 8.4
2018-May-15 15:00N 38°16' W 009°31'4 8.2
2018-May-15 14:30N 38°16' W 009°26'4 8.3
2018-May-15 14:00N 38°16' W 009°21'4 8.5
2018-May-15 13:30N 38°16' W 009°15'  

Dump ship's entire track history